Time;durP1;ratioP1;P1;durP2;ratioP2;P2;SDS_P1;SDS_P2;PMS_P1;PMS_P2;Temp;Humidity;BMP_temperature;BMP_pressure;BME280_temperature;BME280_humidity;BME280_pressure;Samples;Min_cycle;Max_cycle;Signal;HPM_P1;HPM_P2
2021/03/10 11:41:37;;;;;;;28.40;18.23;;;;;;;;;;2098157;27;20368;-87
2021/03/10 11:42:40;;;;;;;29.02;18.30;;;;;;;;;;2099570;28;20410;-90
2021/03/10 11:43:43;;;;;;;28.27;19.67;;;;;;;;;;2096656;28;20443;-89
2021/03/10 11:44:45;;;;;;;28.70;19.88;;;;;;;;;;2081465;28;20413;-90
2021/03/10 11:45:53;;;;;;;25.20;19.35;;;;;;;;;;2075492;28;20985;-88
2021/03/10 11:46:55;;;;;;;29.23;20.92;;;;;;;;;;2100468;28;20412;-90
2021/03/10 11:47:57;;;;;;;25.20;20.48;;;;;;;;;;2096346;28;20430;-91
2021/03/10 11:48:58;;;;;;;25.70;19.73;;;;;;;;;;2081358;28;20540;-90
2021/03/10 11:50:13;;;;;;;28.70;19.95;;;;;;;;;;2094641;28;20500;-90
2021/03/10 11:51:18;;;;;;;29.00;20.52;;;;;;;;;;2098678;28;20425;-90
2021/03/10 11:52:23;;;;;;;27.70;19.98;;;;;;;;;;2092216;28;20404;-89
2021/03/10 11:53:29;;;;;;;26.10;19.75;;;;;;;;;;2092715;28;20392;-95
2021/03/10 11:54:37;;;;;;;26.80;19.90;;;;;;;;;;2090765;28;20767;-92
2021/03/10 11:55:41;;;;;;;25.65;19.15;;;;;;;;;;2090197;28;20396;-92
2021/03/10 11:56:43;;;;;;;27.00;20.80;;;;;;;;;;2093660;28;20414;-92
2021/03/10 11:57:54;;;;;;;32.53;22.02;;;;;;;;;;2098715;28;20503;-89
2021/03/10 11:58:56;;;;;;;31.00;21.33;;;;;;;;;;2098472;28;20418;-91
2021/03/10 12:00:00;;;;;;;28.25;21.92;;;;;;;;;;2097999;28;20407;-93
2021/03/10 12:01:06;;;;;;;26.52;20.38;;;;;;;;;;2096012;28;21152;-89
2021/03/10 12:02:14;;;;;;;26.50;21.05;;;;;;;;;;2072917;28;20999;-92
2021/03/10 12:03:15;;;;;;;30.40;22.70;;;;;;;;;;2099137;28;20414;-91
2021/03/10 12:04:17;;;;;;;27.88;21.33;;;;;;;;;;2093125;28;20475;-87
2021/03/10 12:05:19;;;;;;;28.35;21.55;;;;;;;;;;2097132;28;20398;-92
2021/03/10 12:06:21;;;;;;;26.38;20.52;;;;;;;;;;2092913;28;20454;-94
2021/03/10 12:07:29;;;;;;;29.50;21.95;;;;;;;;;;2079360;28;20415;-92
2021/03/10 12:08:31;;;;;;;30.80;21.02;;;;;;;;;;2083920;28;20466;-93
2021/03/10 12:09:39;;;;;;;27.75;22.20;;;;;;;;;;2090469;28;20459;-94
2021/03/10 12:10:47;;;;;;;27.20;21.05;;;;;;;;;;2096552;28;20438;-91
2021/03/10 12:11:49;;;;;;;25.80;19.85;;;;;;;;;;2095755;28;20926;-93
2021/03/10 12:12:56;;;;;;;28.27;19.98;;;;;;;;;;2077521;28;20435;-91
2021/03/10 12:14:00;;;;;;;26.13;21.50;;;;;;;;;;2080941;28;20417;-92
2021/03/10 12:15:04;;;;;;;30.80;22.52;;;;;;;;;;2093752;28;20833;-91
2021/03/10 12:16:10;;;;;;;25.83;19.42;;;;;;;;;;2103774;28;20957;-92
2021/03/10 12:17:12;;;;;;;25.40;20.15;;;;;;;;;;2095111;28;20413;-92
2021/03/10 12:18:14;;;;;;;29.58;20.67;;;;;;;;;;2088248;28;20511;-92
2021/03/10 12:19:16;;;;;;;30.77;20.75;;;;;;;;;;2096489;28;20418;-92
2021/03/10 12:20:17;;;;;;;24.85;20.30;;;;;;;;;;2097510;28;20402;-91
2021/03/10 12:21:19;;;;;;;24.90;18.45;;;;;;;;;;2097035;28;20425;-91
2021/03/10 12:22:20;;;;;;;26.40;21.15;;;;;;;;;;2091798;28;20397;-93
2021/03/10 12:23:22;;;;;;;34.80;26.75;;;;;;;;;;2095399;28;20440;-92
2021/03/10 12:24:23;;;;;;;31.08;20.92;;;;;;;;;;2087632;28;20477;-91
2021/03/10 12:25:26;;;;;;;29.63;22.02;;;;;;;;;;2084851;28;20418;-92
2021/03/10 12:26:28;;;;;;;24.90;19.83;;;;;;;;;;2092869;28;20479;-93
2021/03/10 12:27:29;;;;;;;27.10;20.80;;;;;;;;;;2090778;28;20404;-91
2021/03/10 12:28:49;;;;;;;23.30;20.47;;;;;;;;;;2078668;28;20491;-92
2021/03/10 12:29:51;;;;;;;26.95;20.25;;;;;;;;;;2088907;28;20459;-91
2021/03/10 12:30:59;;;;;;;25.45;19.10;;;;;;;;;;2104318;28;20451;-92
2021/03/10 12:32:01;;;;;;;27.83;21.00;;;;;;;;;;2103497;28;20444;-93
2021/03/10 12:33:03;;;;;;;26.50;20.02;;;;;;;;;;2059153;28;20409;-90
2021/03/10 12:34:05;;;;;;;27.33;20.45;;;;;;;;;;2091217;28;20411;-93
2021/03/10 12:35:10;;;;;;;27.85;20.60;;;;;;;;;;2092902;28;20409;-92
2021/03/10 12:36:12;;;;;;;29.65;21.98;;;;;;;;;;2084725;28;20423;-91
2021/03/10 12:37:13;;;;;;;29.48;20.70;;;;;;;;;;2082551;28;21200;-91
2021/03/10 12:38:16;;;;;;;30.15;20.60;;;;;;;;;;2086608;28;20424;-92
2021/03/10 12:39:28;;;;;;;24.98;19.48;;;;;;;;;;2088024;28;20483;-92
2021/03/10 12:40:30;;;;;;;26.48;20.42;;;;;;;;;;2088192;28;20400;-90
2021/03/10 12:41:43;;;;;;;25.20;20.30;;;;;;;;;;2098778;28;20886;-92
2021/03/10 12:42:45;;;;;;;27.60;20.92;;;;;;;;;;2101384;28;20398;-92
2021/03/10 12:43:53;;;;;;;26.83;20.77;;;;;;;;;;2095351;28;20466;-92
2021/03/10 12:44:54;;;;;;;24.02;19.75;;;;;;;;;;2092930;28;20594;-92
2021/03/10 12:45:56;;;;;;;24.17;19.08;;;;;;;;;;2096402;28;20431;-92
2021/03/10 12:47:01;;;;;;;30.70;20.60;;;;;;;;;;2107263;28;20394;-92
2021/03/10 12:48:04;;;;;;;24.77;19.85;;;;;;;;;;2111837;28;20392;-91
2021/03/10 12:49:16;;;;;;;25.17;19.67;;;;;;;;;;2109992;28;20435;-88
2021/03/10 12:50:26;;;;;;;27.20;20.70;;;;;;;;;;2097903;28;20802;-90
2021/03/10 12:51:28;;;;;;;24.92;20.40;;;;;;;;;;2093289;28;20816;-89
2021/03/10 12:52:38;;;;;;;24.00;19.83;;;;;;;;;;2105354;28;20505;-90
2021/03/10 12:53:46;;;;;;;27.48;21.05;;;;;;;;;;2102463;28;20451;-91
2021/03/10 12:54:54;;;;;;;27.47;20.60;;;;;;;;;;2094764;28;20489;-90
2021/03/10 12:56:00;;;;;;;27.10;19.42;;;;;;;;;;2080026;28;20417;-91
2021/03/10 12:57:04;;;;;;;25.13;20.75;;;;;;;;;;2090717;28;20409;-92
2021/03/10 12:58:06;;;;;;;26.70;19.53;;;;;;;;;;2096550;28;20403;-91
2021/03/10 12:59:09;;;;;;;28.10;19.23;;;;;;;;;;2088126;28;20409;-90
2021/03/10 13:00:16;;;;;;;26.98;20.75;;;;;;;;;;2096625;28;20422;-91
2021/03/10 13:01:18;;;;;;;25.98;19.00;;;;;;;;;;2098954;28;20420;-91
2021/03/10 13:02:19;;;;;;;36.60;20.30;;;;;;;;;;2092254;28;20396;-90
2021/03/10 13:03:21;;;;;;;27.77;20.17;;;;;;;;;;2075140;28;20416;-90
2021/03/10 13:08:14;;;;;;;13.98;8.60;;;;;;;;;;2087923;27;1512379;-79
2021/03/10 13:09:16;;;;;;;20.55;13.68;;;;;;;;;;2128696;27;20441;-82
2021/03/10 13:10:17;;;;;;;16.25;12.20;;;;;;;;;;2129705;27;20404;-84
2021/03/10 13:15:33;;;;;;;21.40;15.07;;;;;;;;;;2120090;27;20399;-84
2021/03/10 13:16:35;;;;;;;15.98;13.27;;;;;;;;;;2111452;28;20398;-82
2021/03/10 13:17:38;;;;;;;18.08;12.32;;;;;;;;;;2086054;28;20421;-82
2021/03/10 13:18:46;;;;;;;16.05;9.63;;;;;;;;;;2104218;27;20410;-90
2021/03/10 13:19:47;;;;;;;12.00;9.60;;;;;;;;;;2098760;28;20781;-86
2021/03/10 13:20:49;;;;;;;12.90;9.32;;;;;;;;;;2042623;28;21019;-80
2021/03/10 13:22:10;;;;;;;;;;;;;;;;;;;;;
2021/03/10 13:23:24;;;;;;;17.67;14.13;;;;;;;;;;2099901;28;20484;-86
2021/03/10 13:24:25;;;;;;;18.88;15.48;;;;;;;;;;2084165;28;20977;-89
2021/03/10 13:25:26;;;;;;;25.40;19.02;;;;;;;;;;2091406;28;20479;-88
2021/03/10 13:26:28;;;;;;;23.63;18.77;;;;;;;;;;2100164;28;20493;-84
2021/03/10 13:27:29;;;;;;;22.40;18.48;;;;;;;;;;2105974;28;20722;-87
2021/03/10 13:28:30;;;;;;;23.08;18.42;;;;;;;;;;2102771;28;20514;-89
2021/03/10 13:29:33;;;;;;;21.95;19.15;;;;;;;;;;2109499;28;20405;-88
2021/03/10 13:30:34;;;;;;;25.40;19.45;;;;;;;;;;2099211;28;20385;-84
2021/03/10 13:31:35;;;;;;;25.40;19.88;;;;;;;;;;2124614;28;20420;-84
2021/03/10 13:32:39;;;;;;;21.35;18.85;;;;;;;;;;2120316;28;20407;-82
2021/03/10 13:33:41;;;;;;;24.80;20.05;;;;;;;;;;2119542;28;20418;-83
2021/03/10 13:34:42;;;;;;;23.75;19.25;;;;;;;;;;2121681;28;20407;-83
2021/03/10 13:35:46;;;;;;;26.15;19.60;;;;;;;;;;2121880;28;20456;-83
2021/03/10 13:36:47;;;;;;;26.52;19.83;;;;;;;;;;2116584;28;20410;-83
2021/03/10 13:37:49;;;;;;;25.65;19.75;;;;;;;;;;2117655;28;20407;-83
2021/03/10 13:38:51;;;;;;;23.58;18.73;;;;;;;;;;2113778;28;21356;-82
2021/03/10 13:39:52;;;;;;;28.05;20.00;;;;;;;;;;2101768;28;20442;-82
2021/03/10 13:40:54;;;;;;;25.98;19.38;;;;;;;;;;2107296;28;20404;-82
2021/03/10 13:41:55;;;;;;;26.08;20.92;;;;;;;;;;2110282;28;20403;-82
2021/03/10 13:42:57;;;;;;;26.83;20.35;;;;;;;;;;2094627;28;20535;-85
2021/03/10 13:44:05;;;;;;;29.83;20.45;;;;;;;;;;2095847;28;20968;-83
2021/03/10 13:45:07;;;;;;;28.17;19.02;;;;;;;;;;2104203;28;20428;-83
2021/03/10 13:46:09;;;;;;;25.13;19.48;;;;;;;;;;2104763;28;20400;-82
2021/03/10 13:47:10;;;;;;;27.25;19.73;;;;;;;;;;2114021;28;20736;-83
2021/03/10 13:48:12;;;;;;;30.08;19.25;;;;;;;;;;2113633;28;20439;-83
2021/03/10 13:49:13;;;;;;;25.77;18.70;;;;;;;;;;2119991;28;20431;-84
2021/03/10 13:50:15;;;;;;;28.02;18.95;;;;;;;;;;2097151;28;20437;-84
2021/03/10 13:51:16;;;;;;;25.33;19.55;;;;;;;;;;2096054;28;20426;-82
2021/03/10 13:52:17;;;;;;;26.00;19.30;;;;;;;;;;2113502;28;20414;-83
2021/03/10 13:53:19;;;;;;;26.80;18.40;;;;;;;;;;2098128;28;20401;-84
2021/03/10 13:54:20;;;;;;;28.10;20.65;;;;;;;;;;2086151;28;20407;-83
2021/03/10 13:55:21;;;;;;;25.23;20.17;;;;;;;;;;2103185;28;20826;-82
2021/03/10 13:56:24;;;;;;;27.75;19.67;;;;;;;;;;2101961;28;20469;-83
2021/03/10 13:57:25;;;;;;;28.42;20.90;;;;;;;;;;2096840;28;20402;-83
2021/03/10 13:58:27;;;;;;;25.25;19.90;;;;;;;;;;2106182;28;21255;-83
2021/03/10 13:59:28;;;;;;;29.33;20.25;;;;;;;;;;2102683;28;20397;-84
2021/03/10 14:00:29;;;;;;;27.15;20.42;;;;;;;;;;2101715;28;20485;-84
2021/03/10 14:01:39;;;;;;;27.33;19.60;;;;;;;;;;2087559;28;20424;-83
2021/03/10 14:02:41;;;;;;;31.55;21.30;;;;;;;;;;2095552;28;20425;-82
2021/03/10 14:03:43;;;;;;;23.15;19.55;;;;;;;;;;2105371;28;20440;-84
2021/03/10 14:04:45;;;;;;;29.20;20.52;;;;;;;;;;2100742;28;20419;-83
2021/03/10 14:05:47;;;;;;;24.87;20.60;;;;;;;;;;2103167;28;20444;-85
2021/03/10 14:07:01;;;;;;;27.48;20.52;;;;;;;;;;2109060;28;20410;-85
2021/03/10 14:08:16;;;;;;;27.33;21.05;;;;;;;;;;2109952;28;20440;-85
2021/03/10 14:09:23;;;;;;;27.33;21.05;;;;;;;;;;2110418;28;20410;-83
2021/03/10 14:10:31;;;;;;;27.52;19.98;;;;;;;;;;2115458;28;20475;-84
2021/03/10 14:11:34;;;;;;;26.60;20.23;;;;;;;;;;2113576;28;20420;-85
2021/03/10 14:12:54;;;;;;;27.30;20.90;;;;;;;;;;2148766;23;20449;-84
2021/03/10 14:13:55;;;;;;;26.73;19.35;;;;;;;;;;2089979;28;20783;-84
2021/03/10 14:14:58;;;;;;;25.00;19.47;;;;;;;;;;2088192;28;20564;-83
2021/03/10 14:16:00;;;;;;;28.67;20.10;;;;;;;;;;2089179;28;20404;-84
2021/03/10 14:17:04;;;;;;;28.93;21.60;;;;;;;;;;2082512;28;20448;-85
2021/03/10 14:18:06;;;;;;;29.10;20.42;;;;;;;;;;2082179;28;21338;-84
2021/03/10 14:19:07;;;;;;;28.10;20.63;;;;;;;;;;2094941;28;20410;-85
2021/03/10 14:20:11;;;;;;;29.20;20.95;;;;;;;;;;2071209;28;20485;-85
2021/03/10 14:21:13;;;;;;;29.60;21.08;;;;;;;;;;2079338;28;20486;-85
2021/03/10 14:22:16;;;;;;;28.83;20.80;;;;;;;;;;2076565;28;20456;-85
2021/03/10 14:23:18;;;;;;;31.08;21.35;;;;;;;;;;2071446;28;20843;-84
2021/03/10 14:24:21;;;;;;;28.98;21.63;;;;;;;;;;2085047;28;20408;-84
2021/03/10 14:25:23;;;;;;;27.55;20.10;;;;;;;;;;2086395;28;20408;-86
2021/03/10 14:26:24;;;;;;;29.05;20.70;;;;;;;;;;2082926;28;20913;-84
2021/03/10 14:27:25;;;;;;;31.25;22.75;;;;;;;;;;2077372;28;20520;-84
2021/03/10 14:28:26;;;;;;;25.60;19.77;;;;;;;;;;2080839;28;20459;-85
2021/03/10 14:29:34;;;;;;;30.05;20.70;;;;;;;;;;2074517;28;20406;-85
2021/03/10 14:30:38;;;;;;;29.38;19.55;;;;;;;;;;2077542;28;20495;-84
2021/03/10 14:31:40;;;;;;;26.48;19.88;;;;;;;;;;2084094;28;20471;-85
2021/03/10 14:32:43;;;;;;;24.63;17.35;;;;;;;;;;2080187;28;20935;-85
2021/03/10 14:33:45;;;;;;;23.30;15.75;;;;;;;;;;2080061;28;20408;-85
2021/03/10 14:34:47;;;;;;;19.20;14.85;;;;;;;;;;2071817;28;20441;-85
2021/03/10 14:35:50;;;;;;;22.55;15.40;;;;;;;;;;2071837;28;20422;-84
2021/03/10 14:36:52;;;;;;;21.77;15.85;;;;;;;;;;2071688;28;20775;-84
2021/03/10 14:37:53;;;;;;;18.17;14.13;;;;;;;;;;2078496;28;20969;-85
2021/03/10 14:38:55;;;;;;;18.23;13.48;;;;;;;;;;2068472;28;20445;-84
2021/03/10 14:39:57;;;;;;;21.63;15.13;;;;;;;;;;2071271;28;20906;-85
2021/03/10 14:41:04;;;;;;;17.40;12.77;;;;;;;;;;2079727;28;20488;-84
2021/03/10 14:42:07;;;;;;;16.75;12.13;;;;;;;;;;2079097;28;20424;-85
2021/03/10 14:43:08;;;;;;;18.10;13.32;;;;;;;;;;2079787;28;20917;-85
2021/03/10 14:44:10;;;;;;;20.67;16.02;;;;;;;;;;2062491;28;20424;-84
2021/03/10 14:45:13;;;;;;;24.43;16.23;;;;;;;;;;2064230;28;20416;-85
2021/03/10 14:46:15;;;;;;;23.27;17.33;;;;;;;;;;2072961;28;20432;-84
2021/03/10 14:47:17;;;;;;;29.60;19.00;;;;;;;;;;2057483;28;20532;-85
2021/03/10 14:48:18;;;;;;;25.40;18.08;;;;;;;;;;2067193;28;20456;-84
2021/03/10 14:49:26;;;;;;;25.95;17.65;;;;;;;;;;2080312;28;20421;-84
2021/03/10 14:50:27;;;;;;;27.27;18.35;;;;;;;;;;2078139;28;20544;-83
2021/03/10 14:51:29;;;;;;;21.88;16.50;;;;;;;;;;2072228;28;20414;-84
2021/03/10 14:52:30;;;;;;;22.55;16.95;;;;;;;;;;2064415;28;20422;-84
2021/03/10 14:53:31;;;;;;;24.38;16.92;;;;;;;;;;2072516;28;20793;-84
2021/03/10 14:54:35;;;;;;;23.92;17.80;;;;;;;;;;2089293;28;20407;-84
2021/03/10 14:55:36;;;;;;;23.45;17.17;;;;;;;;;;2080761;28;20412;-84
2021/03/10 14:56:37;;;;;;;23.02;17.00;;;;;;;;;;2079490;28;20416;-84
2021/03/10 14:57:40;;;;;;;22.73;16.70;;;;;;;;;;2080845;28;20416;-85
2021/03/10 14:58:41;;;;;;;21.35;18.05;;;;;;;;;;2082107;28;20431;-84
2021/03/10 14:59:42;;;;;;;25.90;19.33;;;;;;;;;;2074149;28;20390;-83
2021/03/10 15:00:45;;;;;;;25.45;18.23;;;;;;;;;;2073236;28;20426;-85
2021/03/10 15:01:47;;;;;;;25.88;19.50;;;;;;;;;;2072749;28;21133;-86
2021/03/10 15:02:49;;;;;;;25.80;20.70;;;;;;;;;;2072736;28;20441;-85
2021/03/10 15:03:50;;;;;;;27.80;18.07;;;;;;;;;;2081261;28;20513;-84
2021/03/10 15:04:52;;;;;;;27.77;19.95;;;;;;;;;;2087533;28;21210;-84
2021/03/10 15:05:53;;;;;;;27.23;21.02;;;;;;;;;;2080650;28;20431;-87
2021/03/10 15:06:54;;;;;;;26.52;20.48;;;;;;;;;;2063611;28;21358;-85
2021/03/10 15:07:55;;;;;;;24.70;19.88;;;;;;;;;;2072826;28;20417;-84
2021/03/10 15:08:57;;;;;;;31.55;20.83;;;;;;;;;;2082185;28;20435;-86
2021/03/10 15:09:58;;;;;;;29.40;22.00;;;;;;;;;;2065869;28;20760;-86
2021/03/10 15:11:01;;;;;;;29.23;20.85;;;;;;;;;;2051208;28;20652;-85
2021/03/10 15:12:02;;;;;;;30.05;23.05;;;;;;;;;;2066558;28;20888;-85
2021/03/10 15:13:04;;;;;;;30.15;20.83;;;;;;;;;;2073622;28;20909;-86
2021/03/10 15:14:07;;;;;;;31.10;22.02;;;;;;;;;;2074097;28;20957;-85
2021/03/10 15:15:15;;;;;;;28.95;22.50;;;;;;;;;;2082431;28;20458;-86
2021/03/10 15:16:16;;;;;;;32.63;23.75;;;;;;;;;;2082208;28;20421;-86
2021/03/10 15:17:18;;;;;;;31.05;21.88;;;;;;;;;;2073479;28;20422;-85
2021/03/10 15:18:20;;;;;;;30.63;21.38;;;;;;;;;;2073829;28;20413;-86
2021/03/10 15:19:21;;;;;;;32.35;23.40;;;;;;;;;;2082110;28;20486;-86
2021/03/10 15:20:23;;;;;;;29.05;22.73;;;;;;;;;;2081201;28;20412;-87
2021/03/10 15:21:28;;;;;;;29.40;22.15;;;;;;;;;;2080617;28;20519;-85
2021/03/10 15:22:34;;;;;;;32.67;22.98;;;;;;;;;;2074674;28;20919;-85
2021/03/10 15:23:36;;;;;;;26.95;21.50;;;;;;;;;;2082034;28;20454;-85
2021/03/10 15:24:43;;;;;;;30.40;22.58;;;;;;;;;;2082374;28;20436;-85
2021/03/10 15:25:45;;;;;;;27.90;21.70;;;;;;;;;;2067208;28;20834;-83
2021/03/10 15:26:46;;;;;;;27.65;21.23;;;;;;;;;;2072509;28;20886;-86
2021/03/10 15:27:47;;;;;;;28.60;21.77;;;;;;;;;;2064361;28;20408;-85
2021/03/10 15:28:48;;;;;;;28.48;21.58;;;;;;;;;;2068480;28;20522;-84
2021/03/10 15:29:52;;;;;;;28.65;21.60;;;;;;;;;;2059840;28;20420;-87
2021/03/10 15:30:53;;;;;;;29.30;22.17;;;;;;;;;;2081922;28;20425;-87
2021/03/10 15:31:54;;;;;;;28.38;21.75;;;;;;;;;;2081479;28;20431;-88
2021/03/10 15:32:57;;;;;;;29.48;21.17;;;;;;;;;;2082033;28;20880;-83
2021/03/10 15:33:58;;;;;;;30.23;21.27;;;;;;;;;;2081549;28;20436;-85
2021/03/10 15:34:59;;;;;;;28.95;22.00;;;;;;;;;;2073506;28;20417;-83
2021/03/10 15:36:01;;;;;;;27.80;21.13;;;;;;;;;;2070711;28;20413;-82
2021/03/10 15:37:02;;;;;;;29.33;21.50;;;;;;;;;;2072577;28;20449;-84
2021/03/10 15:38:03;;;;;;;30.88;22.05;;;;;;;;;;2070160;28;20420;-83
2021/03/10 15:39:05;;;;;;;29.90;20.30;;;;;;;;;;2078520;28;20414;-83
2021/03/10 15:40:07;;;;;;;31.92;21.00;;;;;;;;;;2078565;28;20617;-83
2021/03/10 15:41:10;;;;;;;31.40;21.33;;;;;;;;;;2081932;28;20442;-84
2021/03/10 15:42:13;;;;;;;26.27;18.92;;;;;;;;;;2079400;28;21004;-85
2021/03/10 15:43:16;;;;;;;27.42;19.67;;;;;;;;;;2066701;28;20772;-85
2021/03/10 15:44:17;;;;;;;25.10;18.58;;;;;;;;;;2081175;28;20769;-84
2021/03/10 15:45:36;;;;;;;24.85;18.58;;;;;;;;;;2079734;28;20471;-84
2021/03/10 15:46:38;;;;;;;26.65;19.13;;;;;;;;;;2080169;28;20443;-83
2021/03/10 15:47:40;;;;;;;25.05;17.50;;;;;;;;;;2081409;28;20866;-85
2021/03/10 15:48:41;;;;;;;23.55;17.27;;;;;;;;;;2060372;28;20461;-84
2021/03/10 15:49:43;;;;;;;22.95;17.60;;;;;;;;;;2076391;28;20410;-86
2021/03/10 15:50:46;;;;;;;24.20;17.58;;;;;;;;;;2076072;28;20936;-86
2021/03/10 15:51:48;;;;;;;24.60;18.20;;;;;;;;;;2066352;28;20447;-84
2021/03/10 15:52:52;;;;;;;22.73;17.63;;;;;;;;;;2071904;28;20458;-83
2021/03/10 15:53:54;;;;;;;24.65;18.77;;;;;;;;;;2074717;28;20410;-83
2021/03/10 15:54:56;;;;;;;40.83;24.50;;;;;;;;;;2076938;28;20760;-86
2021/03/10 15:55:57;;;;;;;31.83;21.85;;;;;;;;;;2073174;28;20422;-89
2021/03/10 15:56:58;;;;;;;33.13;23.23;;;;;;;;;;2072823;28;20410;-84
2021/03/10 15:58:03;;;;;;;34.63;23.48;;;;;;;;;;2065474;28;20412;-84
2021/03/10 15:59:07;;;;;;;31.10;20.83;;;;;;;;;;2050841;28;20416;-82
2021/03/10 16:00:10;;;;;;;41.67;23.65;;;;;;;;;;2051883;28;20933;-82
2021/03/10 16:01:11;;;;;;;23.35;17.65;;;;;;;;;;2081201;28;20479;-88
2021/03/10 16:02:13;;;;;;;24.63;17.77;;;;;;;;;;2081131;28;20417;-82
2021/03/10 16:03:15;;;;;;;22.23;17.73;;;;;;;;;;2072349;28;20406;-82
2021/03/10 16:04:17;;;;;;;24.67;18.50;;;;;;;;;;2073348;28;20493;-81
2021/03/10 16:05:18;;;;;;;23.95;17.23;;;;;;;;;;2072657;28;20485;-84
2021/03/10 16:06:19;;;;;;;25.52;18.25;;;;;;;;;;2073273;28;20453;-83
2021/03/10 16:07:21;;;;;;;24.70;18.45;;;;;;;;;;2072558;28;20949;-83
2021/03/10 16:08:23;;;;;;;28.88;20.02;;;;;;;;;;2066472;28;20583;-84
2021/03/10 16:09:24;;;;;;;23.23;19.02;;;;;;;;;;2081781;28;20492;-84
2021/03/10 16:10:26;;;;;;;26.08;20.02;;;;;;;;;;2082624;28;20433;-84
2021/03/10 16:11:28;;;;;;;27.73;21.15;;;;;;;;;;2080510;28;20412;-87
2021/03/10 16:12:29;;;;;;;31.80;20.83;;;;;;;;;;2072743;28;20410;-83
2021/03/10 16:13:32;;;;;;;35.13;22.45;;;;;;;;;;2072653;28;20418;-84
2021/03/10 16:14:35;;;;;;;28.67;20.80;;;;;;;;;;2072613;28;20445;-84
2021/03/10 16:15:38;;;;;;;36.22;22.65;;;;;;;;;;2073561;28;20434;-85
2021/03/10 16:16:39;;;;;;;30.55;21.20;;;;;;;;;;2081054;28;20458;-85
2021/03/10 16:17:41;;;;;;;30.10;22.50;;;;;;;;;;2063475;28;20418;-84
2021/03/10 16:18:43;;;;;;;32.10;23.98;;;;;;;;;;2064344;28;20475;-88
2021/03/10 16:19:45;;;;;;;33.30;24.08;;;;;;;;;;2048420;28;20813;-86
2021/03/10 16:20:46;;;;;;;32.97;24.63;;;;;;;;;;2049208;28;20529;-81
2021/03/10 16:21:48;;;;;;;34.72;24.85;;;;;;;;;;2070460;28;20435;-83
2021/03/10 16:22:52;;;;;;;33.13;24.75;;;;;;;;;;2071859;28;20461;-83
2021/03/10 16:24:06;;;;;;;37.58;26.73;;;;;;;;;;2075190;28;20438;-84
2021/03/10 16:25:08;;;;;;;38.00;26.52;;;;;;;;;;2080122;28;20416;-81
2021/03/10 16:26:09;;;;;;;36.70;27.42;;;;;;;;;;2092605;28;20521;-89
2021/03/10 16:27:15;;;;;;;40.13;28.55;;;;;;;;;;2098037;28;20413;-84
2021/03/10 16:28:17;;;;;;;39.03;28.20;;;;;;;;;;2092412;28;20439;-82
2021/03/10 16:29:21;;;;;;;41.40;29.02;;;;;;;;;;2082779;28;20432;-82
2021/03/10 16:30:22;;;;;;;41.28;28.75;;;;;;;;;;2093941;28;20419;-81
2021/03/10 16:31:24;;;;;;;39.72;28.70;;;;;;;;;;2089464;28;20462;-81
2021/03/10 16:32:25;;;;;;;40.70;27.48;;;;;;;;;;2079047;28;20439;-83
2021/03/10 16:33:27;;;;;;;38.38;27.58;;;;;;;;;;2077209;28;20450;-82
2021/03/10 16:34:28;;;;;;;38.22;27.33;;;;;;;;;;2088009;28;20506;-82
2021/03/10 16:35:29;;;;;;;43.20;30.20;;;;;;;;;;2088784;28;20426;-83
2021/03/10 16:36:30;;;;;;;39.00;28.80;;;;;;;;;;2080472;28;20473;-81
2021/03/10 16:37:33;;;;;;;38.97;27.77;;;;;;;;;;2066375;28;20450;-83
2021/03/10 16:38:37;;;;;;;38.60;28.77;;;;;;;;;;2060262;28;20480;-81
2021/03/10 16:39:38;;;;;;;45.20;30.27;;;;;;;;;;2083169;28;20467;-81
2021/03/10 16:40:40;;;;;;;45.03;29.30;;;;;;;;;;2084444;28;20425;-84
2021/03/10 16:41:48;;;;;;;42.85;28.20;;;;;;;;;;2066521;28;20429;-82
2021/03/10 16:42:49;;;;;;;36.58;27.00;;;;;;;;;;2077498;28;20911;-83
2021/03/10 16:43:50;;;;;;;37.17;26.75;;;;;;;;;;2089683;28;20423;-82
2021/03/10 16:44:51;;;;;;;37.08;28.15;;;;;;;;;;2070994;28;20432;-84
2021/03/10 16:45:58;;;;;;;37.20;28.27;;;;;;;;;;2080983;28;20425;-89
2021/03/10 16:46:59;;;;;;;42.20;27.77;;;;;;;;;;2096779;28;20715;-82
2021/03/10 16:48:01;;;;;;;35.05;25.80;;;;;;;;;;2088818;28;20399;-82
2021/03/10 16:49:02;;;;;;;35.83;26.95;;;;;;;;;;2087742;28;20879;-82
2021/03/10 16:50:04;;;;;;;34.55;26.42;;;;;;;;;;2087804;28;20431;-82
2021/03/10 16:51:05;;;;;;;36.17;25.90;;;;;;;;;;2087392;28;20556;-82
2021/03/10 16:52:07;;;;;;;36.63;26.80;;;;;;;;;;2087565;28;20422;-85
2021/03/10 16:53:09;;;;;;;36.13;25.67;;;;;;;;;;2067311;28;20443;-83
2021/03/10 16:54:11;;;;;;;33.60;24.90;;;;;;;;;;2064779;28;20400;-84
2021/03/10 16:55:15;;;;;;;35.90;25.75;;;;;;;;;;2055497;28;20421;-83
2021/03/10 16:56:16;;;;;;;33.45;24.73;;;;;;;;;;2071687;28;20422;-83
2021/03/10 16:57:17;;;;;;;34.95;25.95;;;;;;;;;;2086069;28;20434;-83
2021/03/10 16:58:29;;;;;;;37.10;26.75;;;;;;;;;;2078665;28;20408;-83
2021/03/10 16:59:30;;;;;;;35.97;25.52;;;;;;;;;;2079430;28;20451;-83
2021/03/10 17:00:32;;;;;;;38.35;27.58;;;;;;;;;;2082986;28;20451;-83
2021/03/10 17:01:34;;;;;;;38.22;26.60;;;;;;;;;;2085173;28;20410;-84
2021/03/10 17:02:36;;;;;;;38.47;26.05;;;;;;;;;;2073142;28;20450;-83
2021/03/10 17:03:37;;;;;;;42.50;26.58;;;;;;;;;;2071218;28;20471;-83
2021/03/10 17:04:38;;;;;;;41.10;27.13;;;;;;;;;;2087331;28;20973;-84
2021/03/10 17:05:40;;;;;;;34.58;24.15;;;;;;;;;;2086650;28;20402;-82
2021/03/10 17:06:42;;;;;;;38.58;25.10;;;;;;;;;;2084048;28;20844;-83
2021/03/10 17:07:43;;;;;;;36.30;26.10;;;;;;;;;;2082082;28;20411;-84
2021/03/10 17:08:46;;;;;;;37.25;26.35;;;;;;;;;;2087052;28;20494;-84
2021/03/10 17:09:47;;;;;;;34.60;25.48;;;;;;;;;;2079303;28;20565;-86
2021/03/10 17:10:49;;;;;;;34.90;25.65;;;;;;;;;;2087631;28;20449;-83
2021/03/10 17:11:51;;;;;;;36.28;25.02;;;;;;;;;;2087113;28;20821;-83
2021/03/10 17:12:53;;;;;;;37.42;27.08;;;;;;;;;;2078185;28;20409;-84
2021/03/10 17:13:55;;;;;;;35.65;24.50;;;;;;;;;;2085083;28;20505;-84
2021/03/10 17:14:56;;;;;;;36.58;24.90;;;;;;;;;;2086459;28;20441;-83
2021/03/10 17:15:57;;;;;;;36.27;25.33;;;;;;;;;;2086898;28;20434;-84
2021/03/10 17:16:58;;;;;;;37.05;25.23;;;;;;;;;;2082628;28;20417;-82
2021/03/10 17:17:59;;;;;;;33.00;24.38;;;;;;;;;;2073178;28;21135;-83
2021/03/10 17:19:01;;;;;;;34.58;25.80;;;;;;;;;;2078964;28;20411;-84
2021/03/10 17:20:06;;;;;;;34.78;25.38;;;;;;;;;;2089296;28;20906;-84
2021/03/10 17:21:09;;;;;;;34.20;23.95;;;;;;;;;;2087540;28;20411;-83
2021/03/10 17:22:11;;;;;;;32.85;23.20;;;;;;;;;;2089083;28;20415;-83
2021/03/10 17:23:12;;;;;;;32.92;24.13;;;;;;;;;;2071723;28;20410;-82
2021/03/10 17:24:13;;;;;;;34.30;24.75;;;;;;;;;;2062788;28;20884;-82
2021/03/10 17:25:15;;;;;;;30.52;22.48;;;;;;;;;;2084086;28;20406;-82
2021/03/10 17:26:16;;;;;;;34.67;25.50;;;;;;;;;;2078833;28;20515;-82
2021/03/10 17:27:17;;;;;;;33.33;24.80;;;;;;;;;;2070851;28;20438;-83
2021/03/10 17:28:18;;;;;;;36.33;26.35;;;;;;;;;;2070861;28;20445;-82
2021/03/10 17:29:19;;;;;;;36.10;26.08;;;;;;;;;;2078951;28;20443;-82
2021/03/10 17:30:21;;;;;;;31.67;23.23;;;;;;;;;;2086498;28;20464;-84
2021/03/10 17:31:22;;;;;;;36.53;26.00;;;;;;;;;;2082215;28;20509;-83
2021/03/10 17:32:24;;;;;;;34.67;26.35;;;;;;;;;;2091071;28;20403;-82
2021/03/10 17:33:26;;;;;;;34.58;24.92;;;;;;;;;;2087452;28;20517;-82
2021/03/10 17:34:27;;;;;;;35.83;26.98;;;;;;;;;;2086611;28;20436;-82
2021/03/10 17:35:28;;;;;;;35.97;27.13;;;;;;;;;;2067414;28;20449;-82
2021/03/10 17:36:30;;;;;;;37.88;27.58;;;;;;;;;;2070600;28;21231;-83
2021/03/10 17:37:31;;;;;;;39.55;27.02;;;;;;;;;;2081522;28;20404;-83
2021/03/10 17:38:32;;;;;;;42.83;29.60;;;;;;;;;;2077613;28;20408;-82
2021/03/10 17:39:34;;;;;;;38.05;27.70;;;;;;;;;;2084410;28;21223;-84
2021/03/10 17:40:35;;;;;;;37.78;27.45;;;;;;;;;;2086935;28;20410;-84
2021/03/10 17:41:36;;;;;;;35.08;25.55;;;;;;;;;;2079525;28;21018;-83
2021/03/10 17:42:38;;;;;;;39.42;27.58;;;;;;;;;;2079668;28;20424;-84
2021/03/10 17:43:40;;;;;;;37.55;27.95;;;;;;;;;;2087388;28;20415;-84
2021/03/10 17:44:43;;;;;;;36.42;26.85;;;;;;;;;;2095909;28;20433;-84
2021/03/10 17:45:47;;;;;;;42.65;26.67;;;;;;;;;;2087374;28;20415;-84
2021/03/10 17:46:57;;;;;;;39.88;26.90;;;;;;;;;;2084431;28;20432;-85
2021/03/10 17:47:59;;;;;;;37.63;28.20;;;;;;;;;;2090264;28;20443;-83
2021/03/10 17:49:00;;;;;;;37.10;26.30;;;;;;;;;;2089260;28;20399;-83
2021/03/10 17:50:04;;;;;;;40.38;28.20;;;;;;;;;;2079281;28;20404;-82
2021/03/10 17:51:07;;;;;;;38.58;27.80;;;;;;;;;;2079370;28;20424;-83
2021/03/10 17:52:09;;;;;;;37.00;26.30;;;;;;;;;;2085684;28;20668;-83
2021/03/10 17:53:11;;;;;;;36.03;26.60;;;;;;;;;;2078742;28;20416;-83
2021/03/10 17:54:14;;;;;;;39.55;27.52;;;;;;;;;;2080169;28;21013;-85
2021/03/10 17:55:17;;;;;;;40.95;28.58;;;;;;;;;;2083346;28;20838;-82
2021/03/10 17:56:19;;;;;;;46.58;28.70;;;;;;;;;;2093545;28;20439;-84